createdAt,value
2023-03-26T00:00:15.895Z,95620.84
2023-03-26T00:03:05.834Z,95610.23
2023-03-26T00:05:36.054Z,95606.64
2023-03-26T00:08:09.228Z,95614.39
2023-03-26T00:10:40.892Z,95604.44
2023-03-26T00:13:11.376Z,95607.98
2023-03-26T00:15:42.886Z,95608.45
2023-03-26T00:18:12.593Z,95600.52
2023-03-26T00:20:42.532Z,95605.92
2023-03-26T00:23:13.800Z,95607.25
2023-03-26T00:25:43.795Z,95613.77
2023-03-26T00:28:13.844Z,95614.88
2023-03-26T00:30:44.068Z,95615.39
2023-03-26T00:33:18.570Z,95610.66
2023-03-26T00:35:57.131Z,95608.08
2023-03-26T00:38:28.784Z,95606.02
2023-03-26T00:41:06.877Z,95604.77
2023-03-26T00:43:37.613Z,95612.51
2023-03-26T00:46:07.675Z,95612.55
2023-03-26T00:48:45.506Z,95611.20
2023-03-26T00:51:17.549Z,95606.88
2023-03-26T00:53:49.117Z,95611.62
2023-03-26T00:56:20.107Z,95608.69
2023-03-26T00:58:50.436Z,95612.88
2023-03-26T01:01:28.739Z,95610.63
2023-03-26T01:04:28.578Z,95605.14
2023-03-26T01:07:03.354Z,95607.51
2023-03-26T01:09:36.928Z,95610.06
2023-03-26T01:12:09.754Z,95609.16
2023-03-26T01:14:39.514Z,95610.48
2023-03-26T01:17:09.591Z,95606.25
2023-03-26T01:19:45.837Z,95605.94
2023-03-26T01:22:21.190Z,95613.54
2023-03-26T01:24:54.239Z,95609.17
2023-03-26T01:27:36.155Z,95606.83
2023-03-26T01:30:24.829Z,95608.63
2023-03-26T01:33:03.813Z,95610.77
2023-03-26T01:36:13.497Z,95612.79
2023-03-26T01:39:04.236Z,95610.02
2023-03-26T01:41:47.724Z,95602.16
2023-03-26T01:44:25.214Z,95598.60
2023-03-26T01:46:56.038Z,95596.77
2023-03-26T01:49:28.788Z,95601.14
2023-03-26T01:52:01.071Z,95598.77
2023-03-26T01:54:32.368Z,95593.68
2023-03-26T01:57:22.945Z,95601.70
2023-03-26T02:00:12.473Z,95600.78
2023-03-26T02:03:22.839Z,95599.71
2023-03-26T02:06:21.917Z,95604.79
2023-03-26T02:09:15.260Z,95588.52
2023-03-26T02:11:47.401Z,95592.39
2023-03-26T02:14:17.667Z,95600.38
2023-03-26T02:16:48.317Z,95607.09
2023-03-26T02:19:22.147Z,95608.41
2023-03-26T02:21:51.849Z,95604.09
2023-03-26T02:24:22.959Z,95614.69
2023-03-26T02:26:56.479Z,95619.60
2023-03-26T02:29:27.351Z,95614.14
2023-03-26T02:31:57.306Z,95620.06
2023-03-26T02:34:27.059Z,95622.70
2023-03-26T02:36:57.628Z,95631.94
2023-03-26T02:39:28.148Z,95634.98
2023-03-26T02:42:00.424Z,95633.27
2023-03-26T02:44:30.620Z,95634.84
2023-03-26T02:47:00.356Z,95636.64
2023-03-26T02:49:49.353Z,95637.80
2023-03-26T02:52:40.879Z,95647.88
2023-03-26T02:55:10.835Z,95648.23
2023-03-26T02:57:42.908Z,95652.32
2023-03-26T03:00:23.160Z,95656.84
2023-03-26T03:03:17.577Z,95648.14
2023-03-26T03:06:03.574Z,95646.34
2023-03-26T03:08:39.576Z,95645.73
2023-03-26T03:11:43.507Z,95640.70
2023-03-26T03:14:13.713Z,95636.63
2023-03-26T03:16:45.262Z,95637.23
2023-03-26T03:19:15.384Z,95631.90
2023-03-26T03:21:45.774Z,95635.34
2023-03-26T03:24:18.839Z,95632.19
2023-03-26T03:26:57.570Z,95637.02
2023-03-26T03:29:59.416Z,95640.70
2023-03-26T03:33:03.904Z,95635.52
2023-03-26T03:35:36.426Z,95640.51
2023-03-26T03:38:05.186Z,95639.15
2023-03-26T03:40:42.146Z,95647.98
2023-03-26T03:43:12.519Z,95647.61
2023-03-26T03:45:51.700Z,95650.77
2023-03-26T03:48:39.603Z,95649.71
2023-03-26T03:51:10.054Z,95653.02
2023-03-26T03:54:00.880Z,95647.73
2023-03-26T03:56:49.758Z,95650.95
2023-03-26T03:59:19.543Z,95656.48
2023-03-26T04:01:51.217Z,95660.21
2023-03-26T04:04:29.190Z,95661.95
2023-03-26T04:07:04.583Z,95662.21
2023-03-26T04:09:40.085Z,95669.45
2023-03-26T04:12:16.756Z,95674.42
2023-03-26T04:14:55.204Z,95677.67
2023-03-26T04:17:25.466Z,95680.34
2023-03-26T04:19:57.316Z,95677.39
2023-03-26T04:22:35.494Z,95678.86
2023-03-26T04:25:08.051Z,95675.38
2023-03-26T04:28:06.918Z,95675.18
2023-03-26T04:31:14.289Z,95676.66
2023-03-26T04:33:47.374Z,95678.61
2023-03-26T04:36:27.677Z,95678.92
2023-03-26T04:39:05.867Z,95682.92
2023-03-26T04:41:58.277Z,95689.96
2023-03-26T04:44:32.252Z,95686.85
2023-03-26T04:47:06.682Z,95679.74
2023-03-26T04:49:43.046Z,95685.17
2023-03-26T04:52:14.113Z,95683.70
2023-03-26T04:55:03.451Z,95685.25
2023-03-26T04:57:44.528Z,95684.13
2023-03-26T05:00:22.595Z,95692.42
2023-03-26T05:02:58.523Z,95695.61
2023-03-26T05:05:29.995Z,95698.33
2023-03-26T05:08:01.394Z,95700.02
2023-03-26T05:10:31.187Z,95700.68
2023-03-26T05:13:06.675Z,95698.52
2023-03-26T05:15:56.136Z,95701.35
2023-03-26T05:18:34.376Z,95706.70
2023-03-26T05:21:04.822Z,95710.45
2023-03-26T05:23:36.846Z,95712.92
2023-03-26T05:26:21.320Z,95713.68
2023-03-26T05:28:52.533Z,95707.90
2023-03-26T05:31:43.393Z,95711.61
2023-03-26T05:34:13.713Z,95708.56
2023-03-26T05:36:44.407Z,95698.49
2023-03-26T05:39:36.018Z,95700.33
2023-03-26T05:42:29.854Z,95700.55
2023-03-26T05:45:23.708Z,95695.05
2023-03-26T05:47:55.176Z,95701.30
2023-03-26T05:50:26.367Z,95696.45
2023-03-26T05:53:00.698Z,95692.12
2023-03-26T05:56:01.239Z,95690.06
2023-03-26T05:58:52.126Z,95688.79
2023-03-26T06:01:45.945Z,95691.59
2023-03-26T06:04:35.978Z,95700.53
2023-03-26T06:07:24.631Z,95699.12
2023-03-26T06:10:19.001Z,95697.21
2023-03-26T06:12:50.183Z,95697.95
2023-03-26T06:15:20.235Z,95698.78
2023-03-26T06:18:11.526Z,95702.06
2023-03-26T06:20:51.525Z,95703.48
2023-03-26T06:23:28.505Z,95713.05
2023-03-26T06:26:34.309Z,95711.77
2023-03-26T06:29:25.595Z,95712.58
2023-03-26T06:32:20.487Z,95714.09
2023-03-26T06:35:02.460Z,95711.87
2023-03-26T06:37:31.538Z,95710.41
2023-03-26T06:40:05.206Z,95716.21
2023-03-26T06:43:09.373Z,95717.33
2023-03-26T06:46:02.158Z,95714.52
2023-03-26T06:48:42.596Z,95715.58
2023-03-26T06:51:32.262Z,95719.02
2023-03-26T06:54:12.500Z,95710.16
2023-03-26T06:56:48.735Z,95712.25
2023-03-26T06:59:38.024Z,95710.39
2023-03-26T07:02:32.430Z,95716.73
2023-03-26T07:05:22.709Z,95720.91
2023-03-26T07:08:12.544Z,95717.79
2023-03-26T07:11:04.498Z,95715.58
2023-03-26T07:13:53.458Z,95718.48
2023-03-26T07:16:46.774Z,95731.85
2023-03-26T07:19:36.120Z,95733.48
2023-03-26T07:22:06.337Z,95730.61
2023-03-26T07:25:00.687Z,95735.91
2023-03-26T07:28:21.220Z,95732.88
2023-03-26T07:31:49.474Z,95736.22
2023-03-26T07:35:02.742Z,95733.52
2023-03-26T07:38:12.410Z,95734.95
2023-03-26T07:41:16.645Z,95732.97
2023-03-26T07:44:37.091Z,95726.48
2023-03-26T07:47:37.115Z,95723.91
2023-03-26T07:50:36.376Z,95721.90
2023-03-26T07:53:33.165Z,95713.10
2023-03-26T07:56:27.902Z,95721.10
2023-03-26T07:59:36.105Z,95712.45
2023-03-26T08:02:39.102Z,95707.26
2023-03-26T08:05:31.642Z,95714.15
2023-03-26T08:08:21.303Z,95712.12
2023-03-26T08:11:37.036Z,95711.91
2023-03-26T08:14:28.215Z,95707.73
2023-03-26T08:17:17.591Z,95699.11
2023-03-26T08:20:12.839Z,95702.53
2023-03-26T08:22:46.054Z,95691.66
2023-03-26T08:25:28.554Z,95693.40
2023-03-26T08:28:16.117Z,95692.32
2023-03-26T08:30:47.584Z,95691.31
2023-03-26T08:33:19.795Z,95694.55
2023-03-26T08:35:50.469Z,95692.13
2023-03-26T08:38:21.608Z,95689.27
2023-03-26T08:41:12.166Z,95686.66
2023-03-26T08:44:19.344Z,95685.67
2023-03-26T08:47:04.958Z,95682.81
2023-03-26T08:50:02.124Z,95674.77
2023-03-26T08:52:37.575Z,95680.84
2023-03-26T08:55:36.920Z,95679.19
2023-03-26T08:58:31.674Z,95673.66
2023-03-26T09:01:20.187Z,95672.14
2023-03-26T09:03:54.732Z,95671.96
2023-03-26T09:06:50.978Z,95680.20
2023-03-26T09:09:33.262Z,95683.02
2023-03-26T09:12:35.577Z,95678.90
2023-03-26T09:15:27.873Z,95687.45
2023-03-26T09:18:13.275Z,95691.65
2023-03-26T09:21:05.012Z,95695.27
2023-03-26T09:24:18.070Z,95682.73
2023-03-26T09:27:17.417Z,95686.60
2023-03-26T09:29:58.214Z,95675.41
2023-03-26T09:32:46.744Z,95672.88
2023-03-26T09:35:55.213Z,95669.84
2023-03-26T09:38:41.421Z,95678.30
2023-03-26T09:41:22.615Z,95674.27
2023-03-26T09:44:06.188Z,95670.77
2023-03-26T09:47:03.010Z,95674.67
2023-03-26T09:50:03.032Z,95680.20
2023-03-26T09:53:01.790Z,95675.89
2023-03-26T09:55:36.095Z,95668.38
2023-03-26T09:58:28.148Z,95669.02
2023-03-26T10:01:15.512Z,95664.88
2023-03-26T10:04:07.708Z,95664.85
2023-03-26T10:07:02.584Z,95655.36
2023-03-26T10:09:45.891Z,95661.26
2023-03-26T10:12:40.925Z,95664.05
2023-03-26T10:15:32.367Z,95668.98
2023-03-26T10:18:27.528Z,95671.93
2023-03-26T10:21:07.811Z,95667.70
2023-03-26T10:24:14.393Z,95663.14
2023-03-26T10:27:10.644Z,95656.54
2023-03-26T10:30:22.897Z,95660.19
2023-03-26T10:33:24.948Z,95659.09
2023-03-26T10:36:15.817Z,95662.52
2023-03-26T10:39:36.360Z,95669.19
2023-03-26T10:42:44.974Z,95673.92
2023-03-26T10:46:10.258Z,95686.49
2023-03-26T10:49:01.430Z,95671.31
2023-03-26T10:51:57.359Z,95659.80
2023-03-26T10:54:36.790Z,95661.40
2023-03-26T10:57:40.611Z,95662.81
2023-03-26T11:00:26.788Z,95658.36
2023-03-26T11:03:22.467Z,95646.63
2023-03-26T11:06:36.236Z,95637.94
2023-03-26T11:09:31.354Z,95644.45
2023-03-26T11:12:49.534Z,95655.98
2023-03-26T11:15:59.958Z,95642.61
2023-03-26T11:18:41.942Z,95637.67
2023-03-26T11:21:24.216Z,95628.52
2023-03-26T11:24:10.679Z,95633.34
2023-03-26T11:27:15.963Z,95641.16
2023-03-26T11:29:55.408Z,95643.61
2023-03-26T11:32:48.797Z,95632.56
2023-03-26T11:35:39.706Z,95636.09
2023-03-26T11:38:40.705Z,95631.35
2023-03-26T11:41:26.597Z,95631.76
2023-03-26T11:44:37.145Z,95633.54
2023-03-26T11:47:12.547Z,95627.55
2023-03-26T11:49:46.741Z,95617.06
2023-03-26T11:52:16.569Z,95628.09
2023-03-26T11:54:48.875Z,95622.56
2023-03-26T11:57:33.578Z,95621.46
2023-03-26T12:00:18.869Z,95624.45
2023-03-26T12:02:49.912Z,95631.31
2023-03-26T12:05:25.417Z,95630.25
2023-03-26T12:08:04.634Z,95631.38
2023-03-26T12:10:43.291Z,95630.05
2023-03-26T12:13:29.644Z,95632.31
2023-03-26T12:16:16.251Z,95627.17
2023-03-26T12:18:57.974Z,95630.54
2023-03-26T12:21:27.887Z,95612.74
2023-03-26T12:24:02.902Z,95629.88
2023-03-26T12:26:43.145Z,95618.63
2023-03-26T12:29:18.156Z,95627.23
2023-03-26T12:32:03.723Z,95636.23
2023-03-26T12:34:39.703Z,95617.35
2023-03-26T12:37:40.141Z,95614.30
2023-03-26T12:40:37.369Z,95612.45
2023-03-26T12:44:46.408Z,95609.55
2023-03-26T12:47:57.365Z,95599.44
2023-03-26T12:49:24.168Z,95595.45
2023-03-26T12:52:20.807Z,95596.76
2023-03-26T12:55:14.856Z,95591.20
2023-03-26T12:58:14.072Z,95591.61
2023-03-26T13:01:23.647Z,95585.59
2023-03-26T13:04:30.575Z,95581.78
2023-03-26T13:07:08.192Z,95577.58
2023-03-26T13:10:05.749Z,95576.92
2023-03-26T13:12:45.516Z,95573.88
2023-03-26T13:15:21.007Z,95574.25
2023-03-26T13:18:04.468Z,95569.14
2023-03-26T13:20:50.182Z,95573.80
2023-03-26T13:24:06.429Z,95568.19
2023-03-26T13:27:07.247Z,95571.55
2023-03-26T13:29:59.767Z,95568.82
2023-03-26T13:32:47.947Z,95560.33
2023-03-26T13:35:28.229Z,95560.17
2023-03-26T13:38:07.494Z,95551.65
2023-03-26T13:41:07.616Z,95551.08
2023-03-26T13:43:43.809Z,95546.73
2023-03-26T13:46:32.337Z,95533.85
2023-03-26T13:49:10.454Z,95532.73
2023-03-26T13:51:59.369Z,95527.48
2023-03-26T13:54:48.213Z,95522.80
2023-03-26T13:57:32.281Z,95525.89
2023-03-26T14:00:07.636Z,95521.00
2023-03-26T14:02:44.555Z,95517.55
2023-03-26T14:05:35.091Z,95515.77
2023-03-26T14:08:21.174Z,95516.44
2023-03-26T14:11:03.158Z,95507.04
2023-03-26T14:14:06.574Z,95511.36
2023-03-26T14:16:42.703Z,95515.76
2023-03-26T14:19:25.508Z,95514.11
2023-03-26T14:22:14.485Z,95513.90
2023-03-26T14:24:44.885Z,95518.82
2023-03-26T14:27:40.982Z,95521.89
2023-03-26T14:30:33.421Z,95521.58
2023-03-26T14:33:27.376Z,95528.77
2023-03-26T14:36:07.834Z,95530.14
2023-03-26T14:39:18.961Z,95534.08
2023-03-26T14:41:51.544Z,95531.79
2023-03-26T14:44:48.496Z,95525.55
2023-03-26T14:47:24.229Z,95523.28
2023-03-26T14:50:56.275Z,95520.02
2023-03-26T14:53:33.908Z,95519.45
2023-03-26T14:56:15.666Z,95520.17
2023-03-26T14:59:22.784Z,95524.20
2023-03-26T15:02:34.944Z,95517.14
2023-03-26T15:05:19.988Z,95518.84
2023-03-26T15:08:33.747Z,95517.33
2023-03-26T15:11:21.462Z,95518.52
2023-03-26T15:14:00.780Z,95516.45
2023-03-26T15:17:04.484Z,95516.13
2023-03-26T15:20:02.037Z,95505.81
2023-03-26T15:23:02.995Z,95504.88
2023-03-26T15:26:10.303Z,95499.26
2023-03-26T15:29:04.113Z,95501.41
2023-03-26T15:31:52.413Z,95499.91
2023-03-26T15:34:44.058Z,95497.19
2023-03-26T15:37:31.239Z,95501.89
2023-03-26T15:40:38.456Z,95498.38
2023-03-26T15:43:13.668Z,95497.35
2023-03-26T15:45:50.310Z,95496.33
2023-03-26T15:48:41.003Z,95499.35
2023-03-26T15:51:28.635Z,95497.01
2023-03-26T15:54:18.982Z,95504.14
2023-03-26T15:57:03.362Z,95505.02
2023-03-26T15:59:59.714Z,95499.19
2023-03-26T16:02:41.921Z,95497.45
2023-03-26T16:05:37.749Z,95501.98
2023-03-26T16:08:26.245Z,95495.09
2023-03-26T16:11:00.474Z,95495.32
2023-03-26T16:13:38.526Z,95497.56
2023-03-26T16:16:16.651Z,95496.70
2023-03-26T16:19:22.005Z,95503.16
2023-03-26T16:22:07.978Z,95509.02
2023-03-26T16:24:47.155Z,95514.34
2023-03-26T16:27:29.603Z,95513.04
2023-03-26T16:30:10.764Z,95514.61
2023-03-26T16:32:48.512Z,95513.22
2023-03-26T16:35:18.899Z,95512.95
2023-03-26T16:37:53.251Z,95516.80
2023-03-26T16:40:33.593Z,95517.11
2023-03-26T16:43:13.862Z,95516.29
2023-03-26T16:46:11.652Z,95513.14
2023-03-26T16:48:50.496Z,95517.10
2023-03-26T16:51:28.655Z,95526.66
2023-03-26T16:54:16.978Z,95537.36
2023-03-26T16:57:07.689Z,95533.36
2023-03-26T17:00:04.911Z,95535.38
2023-03-26T17:03:00.598Z,95534.54
2023-03-26T17:05:51.470Z,95538.88
2023-03-26T17:08:44.338Z,95540.48
2023-03-26T17:11:37.165Z,95541.70
2023-03-26T17:14:30.348Z,95549.40
2023-03-26T17:17:13.170Z,95550.99
2023-03-26T17:20:02.498Z,95556.20
2023-03-26T17:22:52.657Z,95556.31
2023-03-26T17:26:06.387Z,95556.31
2023-03-26T17:29:07.497Z,95557.13
2023-03-26T17:32:00.495Z,95557.38
2023-03-26T17:34:54.506Z,95553.27
2023-03-26T17:37:23.974Z,95550.34
2023-03-26T17:40:02.505Z,95550.34
2023-03-26T17:42:36.127Z,95544.10
2023-03-26T17:45:12.511Z,95543.42
2023-03-26T17:48:02.766Z,95544.14
2023-03-26T17:50:51.222Z,95531.39
2023-03-26T17:53:31.723Z,95530.98
2023-03-26T17:56:16.808Z,95533.44
2023-03-26T17:58:50.408Z,95529.85
2023-03-26T18:01:37.612Z,95531.52
2023-03-26T18:04:16.139Z,95529.52
2023-03-26T18:06:59.732Z,95530.58
2023-03-26T18:10:03.543Z,95531.35
2023-03-26T18:13:00.309Z,95531.34
2023-03-26T18:15:35.136Z,95533.50
2023-03-26T18:18:26.247Z,95527.30
2023-03-26T18:20:59.633Z,95527.70
2023-03-26T18:23:44.895Z,95525.23
2023-03-26T18:26:42.967Z,95527.51
2023-03-26T18:29:27.221Z,95528.45
2023-03-26T18:32:00.881Z,95529.36
2023-03-26T18:34:33.807Z,95528.60
2023-03-26T18:37:15.182Z,95534.69
2023-03-26T18:40:09.372Z,95529.40
2023-03-26T18:42:41.293Z,95530.49
2023-03-26T18:45:36.719Z,95521.70
2023-03-26T18:48:12.089Z,95518.67
2023-03-26T18:50:43.063Z,95519.02
2023-03-26T18:53:25.236Z,95519.15
2023-03-26T18:55:55.011Z,95513.13
2023-03-26T18:58:33.868Z,95504.91
2023-03-26T19:01:23.756Z,95506.01
2023-03-26T19:03:55.908Z,95502.74
2023-03-26T19:06:27.714Z,95505.14
2023-03-26T19:08:58.696Z,95499.21
2023-03-26T19:11:29.567Z,95496.84
2023-03-26T19:14:17.764Z,95496.02
2023-03-26T19:16:57.153Z,95496.86
2023-03-26T19:19:33.035Z,95493.58
2023-03-26T19:22:05.905Z,95490.85
2023-03-26T19:24:37.349Z,95485.36
2023-03-26T19:27:09.093Z,95485.46
2023-03-26T19:29:39.658Z,95481.30
2023-03-26T19:32:21.519Z,95479.46
2023-03-26T19:34:53.751Z,95482.80
2023-03-26T19:37:26.789Z,95477.60
2023-03-26T19:40:17.936Z,95475.20
2023-03-26T19:42:51.113Z,95472.80
2023-03-26T19:45:23.340Z,95463.66
2023-03-26T19:48:07.422Z,95464.04
2023-03-26T19:50:53.261Z,95461.21
2023-03-26T19:53:33.405Z,95460.30
2023-03-26T19:56:13.540Z,95458.88
2023-03-26T19:58:45.618Z,95453.84
2023-03-26T20:01:21.271Z,95453.23
2023-03-26T20:03:53.275Z,95450.70
2023-03-26T20:06:33.888Z,95450.02
2023-03-26T20:09:11.304Z,95449.02
2023-03-26T20:11:41.874Z,95446.15
2023-03-26T20:14:17.349Z,95448.67
2023-03-26T20:16:46.686Z,95448.38
2023-03-26T20:19:17.148Z,95449.05
2023-03-26T20:21:46.979Z,95444.66
2023-03-26T20:24:17.998Z,95445.92
2023-03-26T20:26:48.208Z,95444.31
2023-03-26T20:29:20.150Z,95442.92
2023-03-26T20:31:50.493Z,95441.83
2023-03-26T20:34:24.671Z,95435.97
2023-03-26T20:37:01.271Z,95432.74
2023-03-26T20:39:31.807Z,95429.70
2023-03-26T20:42:02.080Z,95427.88
2023-03-26T20:44:32.130Z,95425.16
2023-03-26T20:47:02.398Z,95420.77
2023-03-26T20:49:32.782Z,95415.47
2023-03-26T20:52:03.063Z,95410.16
2023-03-26T20:54:31.865Z,95407.89
2023-03-26T20:57:02.789Z,95406.47
2023-03-26T20:59:34.946Z,95412.36
2023-03-26T21:02:05.077Z,95408.23
2023-03-26T21:04:36.629Z,95409.48
2023-03-26T21:07:17.578Z,95408.04
2023-03-26T21:09:49.189Z,95407.77
2023-03-26T21:12:36.042Z,95400.00
2023-03-26T21:15:13.378Z,95396.08
2023-03-26T21:17:55.413Z,95400.05
2023-03-26T21:20:28.426Z,95391.19
2023-03-26T21:23:23.067Z,95392.23
2023-03-26T21:26:24.341Z,95392.44
2023-03-26T21:28:54.716Z,95383.64
2023-03-26T21:31:24.729Z,95383.54
2023-03-26T21:33:55.678Z,95387.61
2023-03-26T21:36:25.265Z,95378.16
2023-03-26T21:38:55.053Z,95381.74
2023-03-26T21:41:25.289Z,95386.32
2023-03-26T21:43:55.141Z,95386.95
2023-03-26T21:46:25.475Z,95380.14
2023-03-26T21:48:55.633Z,95371.42
2023-03-26T21:51:25.720Z,95363.64
2023-03-26T21:53:55.718Z,95358.55
2023-03-26T21:56:53.893Z,95356.89
2023-03-26T21:59:31.849Z,95354.63
2023-03-26T22:02:16.209Z,95352.36
2023-03-26T22:04:52.724Z,95345.04
2023-03-26T22:07:51.939Z,95331.36
2023-03-26T22:10:21.991Z,95326.05
2023-03-26T22:12:52.469Z,95322.89
2023-03-26T22:15:22.278Z,95324.08
2023-03-26T22:17:56.128Z,95318.61
2023-03-26T22:20:28.356Z,95310.73
2023-03-26T22:22:59.408Z,95303.80
2023-03-26T22:25:29.223Z,95307.83
2023-03-26T22:27:58.695Z,95304.27
2023-03-26T22:30:28.640Z,95299.86
2023-03-26T22:32:59.206Z,95293.16
2023-03-26T22:35:29.275Z,95290.25
2023-03-26T22:38:00.934Z,95290.56
2023-03-26T22:40:31.639Z,95286.21
2023-03-26T22:43:02.070Z,95280.58
2023-03-26T22:45:33.003Z,95277.41
2023-03-26T22:48:04.695Z,95274.20
2023-03-26T22:50:35.287Z,95268.95
2023-03-26T22:53:05.457Z,95265.45
2023-03-26T22:55:35.727Z,95259.46
2023-03-26T22:58:05.763Z,95252.17
2023-03-26T23:00:36.657Z,95248.58
2023-03-26T23:03:08.756Z,95249.97
2023-03-26T23:05:37.332Z,95241.18
2023-03-26T23:08:08.226Z,95241.48
2023-03-26T23:10:42.969Z,95241.00
2023-03-26T23:13:13.515Z,95236.74
2023-03-26T23:15:42.063Z,95234.76
2023-03-26T23:18:12.800Z,95230.09
2023-03-26T23:20:53.086Z,95235.08
2023-03-26T23:23:31.411Z,95236.04
2023-03-26T23:26:03.705Z,95236.60
2023-03-26T23:28:35.073Z,95232.02
2023-03-26T23:31:07.372Z,95230.66
2023-03-26T23:33:39.454Z,95231.58
2023-03-26T23:36:10.483Z,95227.61
2023-03-26T23:38:43.653Z,95222.64
2023-03-26T23:41:16.190Z,95219.00
2023-03-26T23:43:55.828Z,95219.96
2023-03-26T23:46:37.271Z,95212.40
2023-03-26T23:49:07.673Z,95217.02
2023-03-26T23:51:38.154Z,95207.39
2023-03-26T23:54:09.059Z,95200.05
2023-03-26T23:56:39.194Z,95192.30
2023-03-26T23:59:08.771Z,95184.15
